sensor_id;sensor_type;location;lat;lon;timestamp;P1;durP1;ratioP1;P2;durP2;ratioP2
34673;SDS011;20879;55.668;37.858;2023-07-29T00:02:19;2.63;;;2.13;;
34673;SDS011;20879;55.668;37.858;2023-07-29T00:04:56;4.30;;;2.30;;
34673;SDS011;20879;55.668;37.858;2023-07-29T00:07:29;2.53;;;2.33;;
34673;SDS011;20879;55.668;37.858;2023-07-29T00:09:59;6.05;;;2.38;;
34673;SDS011;20879;55.668;37.858;2023-07-29T00:14:59;4.13;;;2.90;;
34673;SDS011;20879;55.668;37.858;2023-07-29T00:17:30;2.83;;;2.42;;
34673;SDS011;20879;55.668;37.858;2023-07-29T00:20:02;3.05;;;2.30;;
34673;SDS011;20879;55.668;37.858;2023-07-29T00:22:36;3.38;;;2.55;;
34673;SDS011;20879;55.668;37.858;2023-07-29T00:25:09;2.80;;;2.60;;
34673;SDS011;20879;55.668;37.858;2023-07-29T00:27:39;4.43;;;2.85;;
34673;SDS011;20879;55.668;37.858;2023-07-29T00:30:08;4.53;;;2.95;;
34673;SDS011;20879;55.668;37.858;2023-07-29T00:32:45;4.43;;;2.47;;
34673;SDS011;20879;55.668;37.858;2023-07-29T00:35:22;2.80;;;2.55;;
34673;SDS011;20879;55.668;37.858;2023-07-29T00:37:52;5.13;;;3.08;;
34673;SDS011;20879;55.668;37.858;2023-07-29T00:40:22;2.90;;;2.58;;
34673;SDS011;20879;55.668;37.858;2023-07-29T00:42:56;3.53;;;2.65;;
34673;SDS011;20879;55.668;37.858;2023-07-29T00:45:29;5.38;;;2.50;;
34673;SDS011;20879;55.668;37.858;2023-07-29T00:48:04;4.13;;;2.83;;
34673;SDS011;20879;55.668;37.858;2023-07-29T00:50:37;5.47;;;2.60;;
34673;SDS011;20879;55.668;37.858;2023-07-29T00:53:09;4.60;;;2.53;;
34673;SDS011;20879;55.668;37.858;2023-07-29T00:55:44;3.75;;;2.55;;
34673;SDS011;20879;55.668;37.858;2023-07-29T00:58:14;2.70;;;2.35;;
34673;SDS011;20879;55.668;37.858;2023-07-29T01:00:44;4.82;;;2.58;;
34673;SDS011;20879;55.668;37.858;2023-07-29T01:03:15;2.88;;;2.63;;
34673;SDS011;20879;55.668;37.858;2023-07-29T01:05:59;3.65;;;2.50;;
34673;SDS011;20879;55.668;37.858;2023-07-29T01:08:42;3.90;;;2.40;;
34673;SDS011;20879;55.668;37.858;2023-07-29T01:11:27;4.35;;;2.45;;
34673;SDS011;20879;55.668;37.858;2023-07-29T01:14:13;4.20;;;2.58;;
34673;SDS011;20879;55.668;37.858;2023-07-29T01:16:55;3.55;;;2.30;;
34673;SDS011;20879;55.668;37.858;2023-07-29T01:19:39;2.95;;;2.58;;
34673;SDS011;20879;55.668;37.858;2023-07-29T01:22:19;3.85;;;2.40;;
34673;SDS011;20879;55.668;37.858;2023-07-29T01:24:56;2.58;;;2.00;;
34673;SDS011;20879;55.668;37.858;2023-07-29T01:27:31;2.33;;;2.13;;
34673;SDS011;20879;55.668;37.858;2023-07-29T01:30:03;3.05;;;2.40;;
34673;SDS011;20879;55.668;37.858;2023-07-29T01:32:39;3.35;;;2.47;;
34673;SDS011;20879;55.668;37.858;2023-07-29T01:35:22;2.67;;;2.30;;
34673;SDS011;20879;55.668;37.858;2023-07-29T01:37:57;4.38;;;2.22;;
34673;SDS011;20879;55.668;37.858;2023-07-29T01:40:34;5.25;;;2.78;;
34673;SDS011;20879;55.668;37.858;2023-07-29T01:43:10;3.95;;;2.65;;
34673;SDS011;20879;55.668;37.858;2023-07-29T01:45:48;3.25;;;2.35;;
34673;SDS011;20879;55.668;37.858;2023-07-29T01:48:18;4.30;;;2.72;;
34673;SDS011;20879;55.668;37.858;2023-07-29T01:50:50;3.75;;;2.78;;
34673;SDS011;20879;55.668;37.858;2023-07-29T01:53:20;5.28;;;3.10;;
34673;SDS011;20879;55.668;37.858;2023-07-29T01:55:51;5.40;;;3.03;;
34673;SDS011;20879;55.668;37.858;2023-07-29T01:58:25;3.90;;;2.83;;
34673;SDS011;20879;55.668;37.858;2023-07-29T02:00:54;3.07;;;2.63;;
34673;SDS011;20879;55.668;37.858;2023-07-29T02:03:24;4.43;;;2.75;;
34673;SDS011;20879;55.668;37.858;2023-07-29T02:05:57;6.40;;;2.90;;
34673;SDS011;20879;55.668;37.858;2023-07-29T02:08:34;4.03;;;2.67;;
34673;SDS011;20879;55.668;37.858;2023-07-29T02:11:06;6.55;;;3.20;;
34673;SDS011;20879;55.668;37.858;2023-07-29T02:13:37;6.85;;;3.13;;
34673;SDS011;20879;55.668;37.858;2023-07-29T02:16:06;3.10;;;2.80;;
34673;SDS011;20879;55.668;37.858;2023-07-29T02:18:37;4.95;;;3.40;;
34673;SDS011;20879;55.668;37.858;2023-07-29T02:21:07;4.97;;;3.08;;
34673;SDS011;20879;55.668;37.858;2023-07-29T02:23:37;4.05;;;2.97;;
34673;SDS011;20879;55.668;37.858;2023-07-29T02:26:11;2.97;;;2.70;;
34673;SDS011;20879;55.668;37.858;2023-07-29T02:28:41;3.08;;;2.78;;
34673;SDS011;20879;55.668;37.858;2023-07-29T02:31:15;4.05;;;3.05;;
34673;SDS011;20879;55.668;37.858;2023-07-29T02:33:46;3.00;;;2.72;;
34673;SDS011;20879;55.668;37.858;2023-07-29T02:36:22;5.15;;;3.00;;
34673;SDS011;20879;55.668;37.858;2023-07-29T02:39:07;5.65;;;3.50;;
34673;SDS011;20879;55.668;37.858;2023-07-29T02:41:41;4.30;;;3.10;;
34673;SDS011;20879;55.668;37.858;2023-07-29T02:44:12;4.20;;;3.00;;
34673;SDS011;20879;55.668;37.858;2023-07-29T02:46:45;5.03;;;3.33;;
34673;SDS011;20879;55.668;37.858;2023-07-29T02:49:15;4.55;;;3.35;;
34673;SDS011;20879;55.668;37.858;2023-07-29T02:51:45;4.38;;;3.65;;
34673;SDS011;20879;55.668;37.858;2023-07-29T02:54:17;5.18;;;3.53;;
34673;SDS011;20879;55.668;37.858;2023-07-29T02:56:57;7.93;;;3.83;;
34673;SDS011;20879;55.668;37.858;2023-07-29T02:59:28;3.80;;;3.40;;
34673;SDS011;20879;55.668;37.858;2023-07-29T03:01:58;3.85;;;3.40;;
34673;SDS011;20879;55.668;37.858;2023-07-29T03:04:29;3.65;;;3.00;;
34673;SDS011;20879;55.668;37.858;2023-07-29T03:07:02;4.75;;;3.00;;
34673;SDS011;20879;55.668;37.858;2023-07-29T03:09:35;4.75;;;3.30;;
34673;SDS011;20879;55.668;37.858;2023-07-29T03:12:10;4.05;;;3.38;;
34673;SDS011;20879;55.668;37.858;2023-07-29T03:17:33;3.42;;;2.80;;
34673;SDS011;20879;55.668;37.858;2023-07-29T03:20:04;4.25;;;2.95;;
34673;SDS011;20879;55.668;37.858;2023-07-29T03:22:37;4.05;;;3.08;;
34673;SDS011;20879;55.668;37.858;2023-07-29T03:25:19;3.97;;;3.17;;
34673;SDS011;20879;55.668;37.858;2023-07-29T03:27:51;2.95;;;2.65;;
34673;SDS011;20879;55.668;37.858;2023-07-29T03:30:20;5.25;;;3.20;;
34673;SDS011;20879;55.668;37.858;2023-07-29T03:32:52;5.18;;;3.00;;
34673;SDS011;20879;55.668;37.858;2023-07-29T03:35:23;3.53;;;2.97;;
34673;SDS011;20879;55.668;37.858;2023-07-29T03:37:54;4.63;;;3.00;;
34673;SDS011;20879;55.668;37.858;2023-07-29T03:40:25;5.43;;;3.10;;
34673;SDS011;20879;55.668;37.858;2023-07-29T03:42:59;4.22;;;3.00;;
34673;SDS011;20879;55.668;37.858;2023-07-29T03:45:41;3.97;;;2.90;;
34673;SDS011;20879;55.668;37.858;2023-07-29T03:48:12;4.40;;;3.03;;
34673;SDS011;20879;55.668;37.858;2023-07-29T03:50:49;5.63;;;3.60;;
34673;SDS011;20879;55.668;37.858;2023-07-29T03:53:19;9.10;;;3.83;;
34673;SDS011;20879;55.668;37.858;2023-07-29T03:55:48;4.10;;;2.65;;
34673;SDS011;20879;55.668;37.858;2023-07-29T03:58:27;7.93;;;3.53;;
34673;SDS011;20879;55.668;37.858;2023-07-29T04:00:57;2.85;;;2.65;;
34673;SDS011;20879;55.668;37.858;2023-07-29T04:03:31;4.13;;;3.22;;
34673;SDS011;20879;55.668;37.858;2023-07-29T04:06:05;3.15;;;2.78;;
34673;SDS011;20879;55.668;37.858;2023-07-29T04:08:38;3.08;;;2.70;;
34673;SDS011;20879;55.668;37.858;2023-07-29T04:11:16;4.07;;;2.25;;
34673;SDS011;20879;55.668;37.858;2023-07-29T04:13:48;4.72;;;2.70;;
34673;SDS011;20879;55.668;37.858;2023-07-29T04:16:24;4.10;;;2.70;;
34673;SDS011;20879;55.668;37.858;2023-07-29T04:19:01;3.45;;;2.55;;
34673;SDS011;20879;55.668;37.858;2023-07-29T04:21:31;3.45;;;2.80;;
34673;SDS011;20879;55.668;37.858;2023-07-29T04:24:01;3.88;;;3.08;;
34673;SDS011;20879;55.668;37.858;2023-07-29T04:26:31;3.65;;;2.63;;
34673;SDS011;20879;55.668;37.858;2023-07-29T04:29:03;4.28;;;3.10;;
34673;SDS011;20879;55.668;37.858;2023-07-29T04:31:38;3.72;;;2.90;;
34673;SDS011;20879;55.668;37.858;2023-07-29T04:34:10;7.60;;;2.67;;
34673;SDS011;20879;55.668;37.858;2023-07-29T04:36:40;2.65;;;2.40;;
34673;SDS011;20879;55.668;37.858;2023-07-29T04:39:11;5.35;;;2.80;;
34673;SDS011;20879;55.668;37.858;2023-07-29T04:41:43;3.88;;;2.72;;
34673;SDS011;20879;55.668;37.858;2023-07-29T04:44:26;3.80;;;2.72;;
34673;SDS011;20879;55.668;37.858;2023-07-29T04:46:59;4.47;;;2.55;;
34673;SDS011;20879;55.668;37.858;2023-07-29T04:49:32;3.58;;;2.30;;
34673;SDS011;20879;55.668;37.858;2023-07-29T04:52:03;3.20;;;2.63;;
34673;SDS011;20879;55.668;37.858;2023-07-29T04:54:37;3.15;;;2.67;;
34673;SDS011;20879;55.668;37.858;2023-07-29T04:57:08;4.53;;;2.80;;
34673;SDS011;20879;55.668;37.858;2023-07-29T04:59:55;4.25;;;2.72;;
34673;SDS011;20879;55.668;37.858;2023-07-29T05:02:25;2.83;;;2.55;;
34673;SDS011;20879;55.668;37.858;2023-07-29T05:04:54;2.72;;;2.53;;
34673;SDS011;20879;55.668;37.858;2023-07-29T05:07:24;3.63;;;3.00;;
34673;SDS011;20879;55.668;37.858;2023-07-29T05:09:54;3.08;;;2.80;;
34673;SDS011;20879;55.668;37.858;2023-07-29T05:12:29;4.13;;;3.00;;
34673;SDS011;20879;55.668;37.858;2023-07-29T05:15:01;3.03;;;2.72;;
34673;SDS011;20879;55.668;37.858;2023-07-29T05:17:38;4.95;;;2.75;;
34673;SDS011;20879;55.668;37.858;2023-07-29T05:20:08;2.78;;;2.30;;
34673;SDS011;20879;55.668;37.858;2023-07-29T05:22:48;2.67;;;2.47;;
34673;SDS011;20879;55.668;37.858;2023-07-29T05:25:26;3.20;;;2.88;;
34673;SDS011;20879;55.668;37.858;2023-07-29T05:27:56;3.70;;;2.58;;
34673;SDS011;20879;55.668;37.858;2023-07-29T05:30:30;4.20;;;2.72;;
34673;SDS011;20879;55.668;37.858;2023-07-29T05:33:06;2.70;;;2.50;;
34673;SDS011;20879;55.668;37.858;2023-07-29T05:35:43;3.90;;;2.83;;
34673;SDS011;20879;55.668;37.858;2023-07-29T05:38:16;3.38;;;2.80;;
34673;SDS011;20879;55.668;37.858;2023-07-29T05:40:51;3.45;;;2.47;;
34673;SDS011;20879;55.668;37.858;2023-07-29T05:43:28;4.35;;;2.80;;
34673;SDS011;20879;55.668;37.858;2023-07-29T05:46:02;4.70;;;2.47;;
34673;SDS011;20879;55.668;37.858;2023-07-29T05:48:39;3.05;;;2.80;;
34673;SDS011;20879;55.668;37.858;2023-07-29T05:51:09;3.30;;;2.88;;
34673;SDS011;20879;55.668;37.858;2023-07-29T05:53:40;3.60;;;2.70;;
34673;SDS011;20879;55.668;37.858;2023-07-29T05:56:11;3.15;;;2.85;;
34673;SDS011;20879;55.668;37.858;2023-07-29T05:59:05;3.20;;;2.90;;
34673;SDS011;20879;55.668;37.858;2023-07-29T06:01:37;4.47;;;2.58;;
34673;SDS011;20879;55.668;37.858;2023-07-29T06:04:13;4.60;;;2.75;;
34673;SDS011;20879;55.668;37.858;2023-07-29T06:06:51;3.47;;;2.97;;
34673;SDS011;20879;55.668;37.858;2023-07-29T06:09:27;3.75;;;2.53;;
34673;SDS011;20879;55.668;37.858;2023-07-29T06:11:57;3.47;;;2.67;;
34673;SDS011;20879;55.668;37.858;2023-07-29T06:14:39;3.88;;;3.03;;
34673;SDS011;20879;55.668;37.858;2023-07-29T06:17:13;3.20;;;2.72;;
34673;SDS011;20879;55.668;37.858;2023-07-29T06:19:43;4.13;;;2.70;;
34673;SDS011;20879;55.668;37.858;2023-07-29T06:22:12;4.13;;;2.65;;
34673;SDS011;20879;55.668;37.858;2023-07-29T06:24:42;3.60;;;2.67;;
34673;SDS011;20879;55.668;37.858;2023-07-29T06:27:12;5.78;;;2.88;;
34673;SDS011;20879;55.668;37.858;2023-07-29T06:29:42;3.13;;;2.80;;
34673;SDS011;20879;55.668;37.858;2023-07-29T06:32:14;5.28;;;2.78;;
34673;SDS011;20879;55.668;37.858;2023-07-29T06:34:44;3.25;;;2.55;;
34673;SDS011;20879;55.668;37.858;2023-07-29T06:37:14;3.92;;;2.67;;
34673;SDS011;20879;55.668;37.858;2023-07-29T06:42:14;3.97;;;2.70;;
34673;SDS011;20879;55.668;37.858;2023-07-29T06:44:44;3.38;;;2.88;;
34673;SDS011;20879;55.668;37.858;2023-07-29T06:49:49;3.55;;;2.65;;
34673;SDS011;20879;55.668;37.858;2023-07-29T06:52:19;5.15;;;2.38;;
34673;SDS011;20879;55.668;37.858;2023-07-29T06:54:49;6.60;;;3.00;;
34673;SDS011;20879;55.668;37.858;2023-07-29T06:57:29;2.72;;;2.53;;
34673;SDS011;20879;55.668;37.858;2023-07-29T07:00:02;3.33;;;2.65;;
34673;SDS011;20879;55.668;37.858;2023-07-29T07:02:37;3.38;;;2.67;;
34673;SDS011;20879;55.668;37.858;2023-07-29T07:05:09;4.13;;;2.35;;
34673;SDS011;20879;55.668;37.858;2023-07-29T07:07:39;3.05;;;2.75;;
34673;SDS011;20879;55.668;37.858;2023-07-29T07:10:13;4.20;;;2.42;;
34673;SDS011;20879;55.668;37.858;2023-07-29T07:12:47;3.22;;;2.47;;
34673;SDS011;20879;55.668;37.858;2023-07-29T07:15:17;4.35;;;2.55;;
34673;SDS011;20879;55.668;37.858;2023-07-29T07:17:48;3.25;;;2.70;;
34673;SDS011;20879;55.668;37.858;2023-07-29T07:20:20;2.95;;;2.30;;
34673;SDS011;20879;55.668;37.858;2023-07-29T07:22:51;2.60;;;2.40;;
34673;SDS011;20879;55.668;37.858;2023-07-29T07:25:23;2.28;;;2.08;;
34673;SDS011;20879;55.668;37.858;2023-07-29T07:27:52;2.30;;;2.15;;
34673;SDS011;20879;55.668;37.858;2023-07-29T07:30:35;4.07;;;2.20;;
34673;SDS011;20879;55.668;37.858;2023-07-29T07:33:15;5.05;;;2.63;;
34673;SDS011;20879;55.668;37.858;2023-07-29T07:35:50;4.10;;;2.63;;
34673;SDS011;20879;55.668;37.858;2023-07-29T07:41:03;3.10;;;2.80;;
34673;SDS011;20879;55.668;37.858;2023-07-29T07:43:41;3.15;;;2.85;;
34673;SDS011;20879;55.668;37.858;2023-07-29T07:46:12;3.72;;;2.53;;
34673;SDS011;20879;55.668;37.858;2023-07-29T07:48:48;3.67;;;2.88;;
34673;SDS011;20879;55.668;37.858;2023-07-29T07:51:23;4.22;;;2.50;;
34673;SDS011;20879;55.668;37.858;2023-07-29T07:53:55;3.75;;;2.42;;
34673;SDS011;20879;55.668;37.858;2023-07-29T07:56:26;3.38;;;2.78;;
34673;SDS011;20879;55.668;37.858;2023-07-29T07:58:58;2.80;;;2.47;;
34673;SDS011;20879;55.668;37.858;2023-07-29T08:01:27;3.67;;;2.60;;
34673;SDS011;20879;55.668;37.858;2023-07-29T08:04:10;4.38;;;2.88;;
34673;SDS011;20879;55.668;37.858;2023-07-29T08:06:41;3.53;;;2.55;;
34673;SDS011;20879;55.668;37.858;2023-07-29T08:09:14;3.97;;;2.60;;
34673;SDS011;20879;55.668;37.858;2023-07-29T08:11:43;3.40;;;3.00;;
34673;SDS011;20879;55.668;37.858;2023-07-29T08:14:13;3.08;;;2.75;;
34673;SDS011;20879;55.668;37.858;2023-07-29T08:16:43;5.53;;;2.60;;
34673;SDS011;20879;55.668;37.858;2023-07-29T08:19:15;3.50;;;2.95;;
34673;SDS011;20879;55.668;37.858;2023-07-29T08:21:50;5.82;;;3.20;;
34673;SDS011;20879;55.668;37.858;2023-07-29T08:24:22;3.17;;;2.67;;
34673;SDS011;20879;55.668;37.858;2023-07-29T08:26:52;4.55;;;2.85;;
34673;SDS011;20879;55.668;37.858;2023-07-29T08:29:22;3.58;;;2.90;;
34673;SDS011;20879;55.668;37.858;2023-07-29T08:31:56;5.22;;;2.97;;
34673;SDS011;20879;55.668;37.858;2023-07-29T08:34:28;5.93;;;3.15;;
34673;SDS011;20879;55.668;37.858;2023-07-29T08:36:59;3.28;;;2.70;;
34673;SDS011;20879;55.668;37.858;2023-07-29T08:39:38;3.58;;;2.90;;
34673;SDS011;20879;55.668;37.858;2023-07-29T08:42:08;4.93;;;2.80;;
34673;SDS011;20879;55.668;37.858;2023-07-29T08:44:41;6.05;;;3.22;;
34673;SDS011;20879;55.668;37.858;2023-07-29T08:47:14;4.78;;;3.15;;
34673;SDS011;20879;55.668;37.858;2023-07-29T08:49:46;5.00;;;3.13;;
34673;SDS011;20879;55.668;37.858;2023-07-29T08:52:19;2.97;;;2.60;;
34673;SDS011;20879;55.668;37.858;2023-07-29T08:54:51;5.55;;;3.38;;
34673;SDS011;20879;55.668;37.858;2023-07-29T08:57:35;3.67;;;3.15;;
34673;SDS011;20879;55.668;37.858;2023-07-29T09:00:08;4.63;;;2.88;;
34673;SDS011;20879;55.668;37.858;2023-07-29T09:02:41;3.33;;;3.00;;
34673;SDS011;20879;55.668;37.858;2023-07-29T09:05:20;5.05;;;2.70;;
34673;SDS011;20879;55.668;37.858;2023-07-29T09:07:51;5.43;;;3.13;;
34673;SDS011;20879;55.668;37.858;2023-07-29T09:10:23;2.85;;;2.63;;
34673;SDS011;20879;55.668;37.858;2023-07-29T09:12:55;6.55;;;3.13;;
34673;SDS011;20879;55.668;37.858;2023-07-29T09:15:29;3.47;;;3.05;;
34673;SDS011;20879;55.668;37.858;2023-07-29T09:18:08;4.28;;;3.10;;
34673;SDS011;20879;55.668;37.858;2023-07-29T09:20:47;4.32;;;2.80;;
34673;SDS011;20879;55.668;37.858;2023-07-29T09:23:21;3.65;;;3.03;;
34673;SDS011;20879;55.668;37.858;2023-07-29T09:25:52;3.20;;;2.90;;
34673;SDS011;20879;55.668;37.858;2023-07-29T09:28:32;4.32;;;2.90;;
34673;SDS011;20879;55.668;37.858;2023-07-29T09:31:09;5.57;;;2.95;;
34673;SDS011;20879;55.668;37.858;2023-07-29T09:33:50;4.30;;;3.65;;
34673;SDS011;20879;55.668;37.858;2023-07-29T09:36:30;3.78;;;3.40;;
34673;SDS011;20879;55.668;37.858;2023-07-29T09:39:03;4.13;;;3.40;;
34673;SDS011;20879;55.668;37.858;2023-07-29T09:41:47;6.82;;;3.80;;
34673;SDS011;20879;55.668;37.858;2023-07-29T09:44:17;3.95;;;3.53;;
34673;SDS011;20879;55.668;37.858;2023-07-29T09:46:48;5.53;;;3.53;;
34673;SDS011;20879;55.668;37.858;2023-07-29T09:49:18;3.33;;;3.00;;
34673;SDS011;20879;55.668;37.858;2023-07-29T09:51:50;5.82;;;3.45;;
34673;SDS011;20879;55.668;37.858;2023-07-29T09:54:22;3.40;;;3.05;;
34673;SDS011;20879;55.668;37.858;2023-07-29T09:56:53;3.13;;;2.80;;
34673;SDS011;20879;55.668;37.858;2023-07-29T09:59:25;4.70;;;3.67;;
34673;SDS011;20879;55.668;37.858;2023-07-29T10:01:55;2.90;;;2.60;;
34673;SDS011;20879;55.668;37.858;2023-07-29T10:07:02;3.72;;;3.20;;
34673;SDS011;20879;55.668;37.858;2023-07-29T10:12:14;4.13;;;3.25;;
34673;SDS011;20879;55.668;37.858;2023-07-29T10:14:45;5.43;;;3.95;;
34673;SDS011;20879;55.668;37.858;2023-07-29T10:17:22;4.93;;;3.90;;
34673;SDS011;20879;55.668;37.858;2023-07-29T10:19:54;4.20;;;3.80;;
34673;SDS011;20879;55.668;37.858;2023-07-29T10:22:33;4.20;;;3.38;;
34673;SDS011;20879;55.668;37.858;2023-07-29T10:25:13;5.35;;;3.38;;
34673;SDS011;20879;55.668;37.858;2023-07-29T10:37:51;4.45;;;3.60;;
34673;SDS011;20879;55.668;37.858;2023-07-29T10:40:23;4.40;;;3.58;;
34673;SDS011;20879;55.668;37.858;2023-07-29T10:43:01;3.60;;;3.10;;
34673;SDS011;20879;55.668;37.858;2023-07-29T10:45:39;3.38;;;2.88;;
34673;SDS011;20879;55.668;37.858;2023-07-29T10:51:22;8.07;;;2.85;;
34673;SDS011;20879;55.668;37.858;2023-07-29T10:58:13;5.43;;;3.35;;
34673;SDS011;20879;55.668;37.858;2023-07-29T11:01:26;3.85;;;3.15;;
34673;SDS011;20879;55.668;37.858;2023-07-29T11:04:26;4.55;;;3.40;;
34673;SDS011;20879;55.668;37.858;2023-07-29T11:07:20;5.00;;;3.65;;
34673;SDS011;20879;55.668;37.858;2023-07-29T11:10:01;4.13;;;3.08;;
34673;SDS011;20879;55.668;37.858;2023-07-29T11:12:44;3.97;;;3.22;;
34673;SDS011;20879;55.668;37.858;2023-07-29T11:15:21;6.05;;;3.95;;
34673;SDS011;20879;55.668;37.858;2023-07-29T11:17:54;5.03;;;4.00;;
34673;SDS011;20879;55.668;37.858;2023-07-29T11:20:28;5.28;;;3.90;;
34673;SDS011;20879;55.668;37.858;2023-07-29T11:23:06;5.47;;;3.90;;
34673;SDS011;20879;55.668;37.858;2023-07-29T11:25:51;4.72;;;3.67;;
34673;SDS011;20879;55.668;37.858;2023-07-29T11:28:22;4.97;;;4.35;;
34673;SDS011;20879;55.668;37.858;2023-07-29T11:30:57;4.97;;;4.03;;
34673;SDS011;20879;55.668;37.858;2023-07-29T11:33:29;6.50;;;4.18;;
34673;SDS011;20879;55.668;37.858;2023-07-29T11:36:00;6.20;;;4.28;;
34673;SDS011;20879;55.668;37.858;2023-07-29T11:38:53;5.80;;;4.13;;
34673;SDS011;20879;55.668;37.858;2023-07-29T11:41:29;5.45;;;3.97;;
34673;SDS011;20879;55.668;37.858;2023-07-29T11:44:01;5.95;;;3.88;;
34673;SDS011;20879;55.668;37.858;2023-07-29T11:46:34;3.90;;;3.50;;
34673;SDS011;20879;55.668;37.858;2023-07-29T11:59:44;4.30;;;3.60;;
34673;SDS011;20879;55.668;37.858;2023-07-29T12:02:28;5.85;;;3.78;;
34673;SDS011;20879;55.668;37.858;2023-07-29T12:05:27;5.95;;;4.00;;
34673;SDS011;20879;55.668;37.858;2023-07-29T12:08:19;7.20;;;4.10;;
34673;SDS011;20879;55.668;37.858;2023-07-29T12:13:33;6.82;;;4.00;;
34673;SDS011;20879;55.668;37.858;2023-07-29T12:19:14;5.72;;;3.85;;
34673;SDS011;20879;55.668;37.858;2023-07-29T12:21:51;5.35;;;4.10;;
34673;SDS011;20879;55.668;37.858;2023-07-29T12:24:23;7.85;;;4.38;;
34673;SDS011;20879;55.668;37.858;2023-07-29T12:27:12;7.18;;;4.53;;
34673;SDS011;20879;55.668;37.858;2023-07-29T12:29:48;6.88;;;4.32;;
34673;SDS011;20879;55.668;37.858;2023-07-29T12:32:24;6.80;;;4.43;;
34673;SDS011;20879;55.668;37.858;2023-07-29T12:34:58;6.55;;;4.15;;
34673;SDS011;20879;55.668;37.858;2023-07-29T12:37:33;6.03;;;4.03;;
34673;SDS011;20879;55.668;37.858;2023-07-29T12:40:06;5.47;;;3.70;;
34673;SDS011;20879;55.668;37.858;2023-07-29T12:50:07;5.97;;;3.50;;
34673;SDS011;20879;55.668;37.858;2023-07-29T12:52:38;5.13;;;3.80;;
34673;SDS011;20879;55.668;37.858;2023-07-29T12:55:13;7.05;;;3.90;;
34673;SDS011;20879;55.668;37.858;2023-07-29T12:57:52;5.72;;;3.88;;
34673;SDS011;20879;55.668;37.858;2023-07-29T13:00:30;5.47;;;3.65;;
34673;SDS011;20879;55.668;37.858;2023-07-29T13:28:12;4.57;;;3.00;;
34673;SDS011;20879;55.668;37.858;2023-07-29T13:30:48;4.95;;;3.40;;
34673;SDS011;20879;55.668;37.858;2023-07-29T14:08:55;6.97;;;4.65;;
34673;SDS011;20879;55.668;37.858;2023-07-29T14:11:49;7.40;;;4.38;;
34673;SDS011;20879;55.668;37.858;2023-07-29T14:14:23;8.68;;;3.97;;
34673;SDS011;20879;55.668;37.858;2023-07-29T14:16:57;9.02;;;4.30;;
34673;SDS011;20879;55.668;37.858;2023-07-29T14:19:29;6.90;;;4.35;;
34673;SDS011;20879;55.668;37.858;2023-07-29T14:22:03;7.88;;;4.85;;
34673;SDS011;20879;55.668;37.858;2023-07-29T14:24:39;6.15;;;4.05;;
34673;SDS011;20879;55.668;37.858;2023-07-29T14:27:09;6.97;;;4.22;;
34673;SDS011;20879;55.668;37.858;2023-07-29T14:29:40;5.38;;;3.88;;
34673;SDS011;20879;55.668;37.858;2023-07-29T14:32:14;5.55;;;4.35;;
34673;SDS011;20879;55.668;37.858;2023-07-29T14:34:52;6.45;;;4.15;;
34673;SDS011;20879;55.668;37.858;2023-07-29T14:37:21;6.88;;;3.28;;
34673;SDS011;20879;55.668;37.858;2023-07-29T14:39:56;6.65;;;3.83;;
34673;SDS011;20879;55.668;37.858;2023-07-29T14:42:30;7.13;;;3.85;;
34673;SDS011;20879;55.668;37.858;2023-07-29T14:45:10;5.30;;;3.42;;
34673;SDS011;20879;55.668;37.858;2023-07-29T14:47:47;7.22;;;3.72;;
34673;SDS011;20879;55.668;37.858;2023-07-29T14:50:19;8.65;;;4.18;;
34673;SDS011;20879;55.668;37.858;2023-07-29T14:52:52;6.07;;;4.20;;
34673;SDS011;20879;55.668;37.858;2023-07-29T14:55:29;8.80;;;3.78;;
34673;SDS011;20879;55.668;37.858;2023-07-29T14:58:04;7.20;;;3.90;;
34673;SDS011;20879;55.668;37.858;2023-07-29T15:00:33;7.45;;;3.90;;
34673;SDS011;20879;55.668;37.858;2023-07-29T15:03:06;7.00;;;3.92;;
34673;SDS011;20879;55.668;37.858;2023-07-29T15:05:42;7.10;;;3.80;;
34673;SDS011;20879;55.668;37.858;2023-07-29T15:08:13;8.13;;;3.67;;
34673;SDS011;20879;55.668;37.858;2023-07-29T15:10:47;4.20;;;3.80;;
34673;SDS011;20879;55.668;37.858;2023-07-29T15:13:19;7.35;;;4.22;;
34673;SDS011;20879;55.668;37.858;2023-07-29T15:15:49;6.35;;;3.50;;
34673;SDS011;20879;55.668;37.858;2023-07-29T15:18:22;6.80;;;3.95;;
34673;SDS011;20879;55.668;37.858;2023-07-29T15:21:02;6.32;;;3.67;;
34673;SDS011;20879;55.668;37.858;2023-07-29T15:23:35;5.53;;;3.92;;
34673;SDS011;20879;55.668;37.858;2023-07-29T15:26:10;6.65;;;4.35;;
34673;SDS011;20879;55.668;37.858;2023-07-29T15:28:39;8.32;;;4.35;;
34673;SDS011;20879;55.668;37.858;2023-07-29T15:31:17;7.40;;;4.57;;
34673;SDS011;20879;55.668;37.858;2023-07-29T15:33:58;8.10;;;5.90;;
34673;SDS011;20879;55.668;37.858;2023-07-29T15:39:04;9.75;;;5.05;;
34673;SDS011;20879;55.668;37.858;2023-07-29T15:41:37;7.68;;;4.30;;
34673;SDS011;20879;55.668;37.858;2023-07-29T15:44:18;6.00;;;3.97;;
34673;SDS011;20879;55.668;37.858;2023-07-29T15:46:50;7.28;;;4.35;;
34673;SDS011;20879;55.668;37.858;2023-07-29T15:49:24;6.07;;;4.18;;
34673;SDS011;20879;55.668;37.858;2023-07-29T15:52:01;7.05;;;4.32;;
34673;SDS011;20879;55.668;37.858;2023-07-29T15:54:33;8.35;;;4.30;;
34673;SDS011;20879;55.668;37.858;2023-07-29T15:57:07;6.38;;;4.20;;
34673;SDS011;20879;55.668;37.858;2023-07-29T15:59:37;7.88;;;4.20;;
34673;SDS011;20879;55.668;37.858;2023-07-29T16:02:08;7.80;;;4.32;;
34673;SDS011;20879;55.668;37.858;2023-07-29T16:04:39;7.07;;;4.30;;
34673;SDS011;20879;55.668;37.858;2023-07-29T16:07:17;6.38;;;4.20;;
34673;SDS011;20879;55.668;37.858;2023-07-29T16:09:56;7.32;;;3.90;;
34673;SDS011;20879;55.668;37.858;2023-07-29T16:12:38;8.60;;;4.25;;
34673;SDS011;20879;55.668;37.858;2023-07-29T16:15:18;6.55;;;3.97;;
34673;SDS011;20879;55.668;37.858;2023-07-29T16:17:49;8.50;;;3.95;;
34673;SDS011;20879;55.668;37.858;2023-07-29T16:20:24;4.75;;;3.35;;
34673;SDS011;20879;55.668;37.858;2023-07-29T16:23:01;8.07;;;4.05;;
34673;SDS011;20879;55.668;37.858;2023-07-29T16:25:35;5.07;;;3.60;;
34673;SDS011;20879;55.668;37.858;2023-07-29T16:28:09;4.00;;;3.50;;
34673;SDS011;20879;55.668;37.858;2023-07-29T16:30:40;6.13;;;3.38;;
34673;SDS011;20879;55.668;37.858;2023-07-29T16:33:11;4.77;;;3.50;;
34673;SDS011;20879;55.668;37.858;2023-07-29T16:35:40;4.75;;;3.63;;
34673;SDS011;20879;55.668;37.858;2023-07-29T16:38:12;7.18;;;3.67;;
34673;SDS011;20879;55.668;37.858;2023-07-29T16:40:52;5.50;;;3.40;;
34673;SDS011;20879;55.668;37.858;2023-07-29T16:43:42;7.15;;;4.00;;
34673;SDS011;20879;55.668;37.858;2023-07-29T16:46:14;7.78;;;3.78;;
34673;SDS011;20879;55.668;37.858;2023-07-29T16:48:46;7.15;;;3.45;;
34673;SDS011;20879;55.668;37.858;2023-07-29T16:51:22;5.55;;;3.38;;
34673;SDS011;20879;55.668;37.858;2023-07-29T16:53:54;7.28;;;3.13;;
34673;SDS011;20879;55.668;37.858;2023-07-29T16:56:24;5.30;;;3.15;;
34673;SDS011;20879;55.668;37.858;2023-07-29T16:58:56;7.10;;;3.42;;
34673;SDS011;20879;55.668;37.858;2023-07-29T17:01:28;6.53;;;3.55;;
34673;SDS011;20879;55.668;37.858;2023-07-29T17:04:01;5.20;;;3.30;;
34673;SDS011;20879;55.668;37.858;2023-07-29T17:09:21;5.82;;;3.13;;
34673;SDS011;20879;55.668;37.858;2023-07-29T17:11:53;5.32;;;3.05;;
34673;SDS011;20879;55.668;37.858;2023-07-29T17:14:28;4.53;;;3.30;;
34673;SDS011;20879;55.668;37.858;2023-07-29T17:17:04;6.78;;;3.38;;
34673;SDS011;20879;55.668;37.858;2023-07-29T17:19:40;9.05;;;3.03;;
34673;SDS011;20879;55.668;37.858;2023-07-29T17:22:11;6.65;;;3.55;;